createdAt,value
2023-03-01T00:00:16.392Z,29.30
2023-03-01T00:05:20.613Z,29.80
2023-03-01T00:10:23.464Z,29.40
2023-03-01T00:15:26.278Z,29.40
2023-03-01T00:20:30.484Z,29.30
2023-03-01T00:25:33.315Z,29.40
2023-03-01T00:30:36.185Z,29.30
2023-03-01T00:35:40.546Z,29.40
2023-03-01T00:40:43.493Z,29.40
2023-03-01T00:45:46.422Z,29.30
2023-03-01T00:50:50.586Z,29.30
2023-03-01T00:55:53.408Z,29.30
2023-03-01T01:00:56.236Z,29.30
2023-03-01T01:06:10.287Z,29.20
2023-03-01T01:11:13.606Z,29.30
2023-03-01T01:16:18.478Z,29.30
2023-03-01T01:21:24.784Z,29.40
2023-03-01T01:26:31.112Z,29.40
2023-03-01T01:31:35.561Z,29.40
2023-03-01T01:36:39.802Z,29.40
2023-03-01T01:41:43.909Z,29.40
2023-03-01T01:46:50.752Z,29.40
2023-03-01T01:52:01.717Z,29.30
2023-03-01T01:57:09.039Z,29.30
2023-03-01T02:02:12.793Z,29.30
2023-03-01T02:07:20.065Z,29.30
2023-03-01T02:12:26.432Z,29.40
2023-03-01T02:17:29.479Z,29.40
2023-03-01T02:22:34.348Z,29.40
2023-03-01T02:27:46.901Z,29.30
2023-03-01T02:32:52.579Z,29.40
2023-03-01T02:37:58.083Z,29.30
2023-03-01T02:43:01.127Z,29.20
2023-03-01T02:48:05.579Z,29.20
2023-03-01T02:53:13.194Z,29.20
2023-03-01T02:58:16.345Z,29.30
2023-03-01T03:03:22.879Z,29.30
2023-03-01T03:08:25.824Z,29.30
2023-03-01T03:13:29.497Z,29.30
2023-03-01T03:18:33.691Z,29.30
2023-03-01T03:23:37.048Z,29.20
2023-03-01T03:28:40.948Z,29.20
2023-03-01T03:33:45.196Z,29.20
2023-03-01T03:38:48.440Z,29.10
2023-03-01T03:43:51.311Z,29.20
2023-03-01T03:48:55.474Z,29.20
2023-03-01T03:53:58.327Z,29.20
2023-03-01T03:59:01.166Z,29.30
2023-03-01T04:04:06.195Z,29.30
2023-03-01T04:09:09.056Z,29.30
2023-03-01T04:14:12.070Z,29.20
2023-03-01T04:19:16.216Z,29.20
2023-03-01T04:24:19.052Z,29.20
2023-03-01T04:29:21.905Z,29.10
2023-03-01T04:34:27.799Z,29.20
2023-03-01T04:39:30.765Z,29.20
2023-03-01T04:44:33.632Z,29.20
2023-03-01T04:49:37.942Z,29.20
2023-03-01T04:54:40.935Z,29.30
2023-03-01T04:59:43.739Z,29.30
2023-03-01T05:04:47.993Z,29.40
2023-03-01T05:09:50.847Z,29.40
2023-03-01T05:14:53.681Z,29.40
2023-03-01T05:20:00.589Z,29.40
2023-03-01T05:25:03.987Z,29.30
2023-03-01T05:30:15.087Z,29.30
2023-03-01T05:35:20.198Z,29.20
2023-03-01T05:40:25.367Z,29.20
2023-03-01T05:45:29.381Z,29.20
2023-03-01T05:50:35.968Z,29.20
2023-03-01T05:55:39.465Z,29.20
2023-03-01T06:00:42.917Z,29.30
2023-03-01T06:05:47.515Z,29.30
2023-03-01T06:10:50.361Z,29.30
2023-03-01T06:15:53.809Z,29.60
2023-03-01T06:20:58.535Z,29.40
2023-03-01T06:26:02.341Z,29.40
2023-03-01T06:31:05.714Z,29.40
2023-03-01T06:36:11.266Z,29.40
2023-03-01T06:41:14.279Z,29.40
2023-03-01T06:46:17.185Z,29.40
2023-03-01T06:51:21.437Z,29.40
2023-03-01T06:56:24.262Z,29.50
2023-03-01T07:01:27.539Z,29.50
2023-03-01T07:06:32.010Z,29.50
2023-03-01T07:11:35.091Z,29.60
2023-03-01T07:16:38.065Z,29.60
2023-03-01T07:21:42.329Z,29.60
2023-03-01T07:26:45.574Z,29.60
2023-03-01T07:31:48.570Z,29.60
2023-03-01T07:36:53.337Z,29.60
2023-03-01T07:41:56.172Z,29.60
2023-03-01T07:46:59.182Z,29.70
2023-03-01T07:52:03.357Z,29.70
2023-03-01T07:57:06.282Z,29.70
2023-03-01T08:02:10.142Z,29.70
2023-03-01T08:07:14.317Z,29.60
2023-03-01T08:12:18.064Z,29.60
2023-03-01T08:17:20.956Z,29.60
2023-03-01T08:22:25.096Z,29.60
2023-03-01T08:27:27.932Z,29.70
2023-03-01T08:32:30.858Z,29.70
2023-03-01T08:37:35.062Z,29.80
2023-03-01T08:42:37.971Z,29.60
2023-03-01T08:47:40.815Z,29.70
2023-03-01T08:52:44.980Z,29.70
2023-03-01T08:57:47.886Z,29.70
2023-03-01T09:02:50.706Z,29.70
2023-03-01T09:07:54.937Z,29.70
2023-03-01T09:12:57.831Z,29.70
2023-03-01T09:18:01.102Z,29.70
2023-03-01T09:23:05.287Z,29.70
2023-03-01T09:28:09.533Z,29.70
2023-03-01T09:33:15.573Z,29.70
2023-03-01T09:38:19.717Z,29.70
2023-03-01T09:43:31.476Z,29.70
2023-03-01T09:48:43.478Z,29.60
2023-03-01T09:53:48.873Z,29.60
2023-03-01T09:58:59.784Z,29.60
2023-03-01T10:04:13.426Z,29.60
2023-03-01T10:09:19.685Z,29.60
2023-03-01T10:14:32.545Z,29.60
2023-03-01T10:19:40.401Z,29.60
2023-03-01T10:24:45.781Z,29.70
2023-03-01T10:30:04.529Z,29.70
2023-03-01T10:35:19.296Z,29.80
2023-03-01T10:40:23.518Z,29.80
2023-03-01T10:45:35.313Z,29.70
2023-03-01T10:50:42.176Z,29.60
2023-03-01T10:55:46.647Z,29.60
2023-03-01T11:00:52.143Z,29.60
2023-03-01T11:06:07.545Z,29.60
2023-03-01T11:11:32.386Z,29.60
2023-03-01T11:16:37.837Z,29.60
2023-03-01T11:21:45.925Z,29.60
2023-03-01T11:26:55.780Z,29.60
2023-03-01T11:32:02.198Z,29.60
2023-03-01T11:37:14.711Z,29.60
2023-03-01T11:42:22.521Z,29.60
2023-03-01T11:47:42.592Z,29.60
2023-03-01T11:52:57.279Z,29.60
2023-03-01T11:58:22.635Z,29.60
2023-03-01T12:03:32.880Z,29.60
2023-03-01T12:08:41.452Z,29.60
2023-03-01T12:14:09.946Z,29.60
2023-03-01T12:19:36.637Z,29.60
2023-03-01T12:25:03.441Z,29.50
2023-03-01T12:30:26.634Z,29.50
2023-03-01T12:35:46.183Z,29.60
2023-03-01T12:41:10.965Z,29.70
2023-03-01T12:46:27.762Z,29.70
2023-03-01T12:51:33.460Z,29.50
2023-03-01T12:56:39.909Z,29.40
2023-03-01T13:01:52.050Z,29.40
2023-03-01T13:07:09.906Z,29.40
2023-03-01T13:12:44.348Z,29.40
2023-03-01T13:17:48.577Z,29.40
2023-03-01T13:23:03.799Z,29.50
2023-03-01T13:28:41.565Z,29.50
2023-03-01T13:33:48.944Z,29.60
2023-03-01T13:38:59.104Z,29.60
2023-03-01T13:44:02.282Z,29.60
2023-03-01T13:49:06.562Z,29.60
2023-03-01T13:54:14.395Z,29.60
2023-03-01T13:59:19.064Z,29.60
2023-03-01T14:04:25.238Z,29.60
2023-03-01T14:09:32.537Z,29.70
2023-03-01T14:14:47.268Z,29.60
2023-03-01T14:20:00.980Z,29.50
2023-03-01T14:25:07.453Z,29.60
2023-03-01T14:30:16.652Z,29.60
2023-03-01T14:35:25.911Z,29.70
2023-03-01T14:40:31.442Z,29.70
2023-03-01T14:45:34.321Z,29.60
2023-03-01T14:50:43.545Z,29.40
2023-03-01T14:55:49.755Z,29.30
2023-03-01T15:00:55.061Z,29.10
2023-03-01T15:06:00.012Z,28.90
2023-03-01T15:11:08.650Z,28.90
2023-03-01T15:16:14.492Z,28.90
2023-03-01T15:21:25.514Z,28.80
2023-03-01T15:26:32.091Z,28.60
2023-03-01T15:31:39.508Z,28.50
2023-03-01T15:36:46.288Z,28.20
2023-03-01T15:41:50.164Z,28.00
2023-03-01T15:46:53.445Z,28.10
2023-03-01T15:51:57.828Z,28.20
2023-03-01T15:57:00.668Z,28.30
2023-03-01T16:02:03.540Z,28.40
2023-03-01T16:07:08.578Z,28.40
2023-03-01T16:12:16.052Z,28.40
2023-03-01T16:17:19.574Z,28.40
2023-03-01T16:22:26.091Z,28.40
2023-03-01T16:27:29.167Z,28.10
2023-03-01T16:32:32.100Z,28.10
2023-03-01T16:37:37.396Z,28.00
2023-03-01T16:42:40.705Z,27.90
2023-03-01T16:47:44.426Z,28.00
2023-03-01T16:52:48.613Z,28.10
2023-03-01T16:57:52.198Z,28.10
2023-03-01T17:02:56.027Z,28.10
2023-03-01T17:08:00.809Z,28.30
2023-03-01T17:13:04.409Z,28.40
2023-03-01T17:18:07.283Z,28.40
2023-03-01T17:23:11.485Z,28.50
2023-03-01T17:28:14.759Z,28.40
2023-03-01T17:33:18.603Z,28.20
2023-03-01T17:38:22.736Z,28.30
2023-03-01T17:43:26.037Z,28.70
2023-03-01T17:48:28.999Z,28.80
2023-03-01T17:53:34.157Z,28.90
2023-03-01T17:58:37.113Z,28.90
2023-03-01T18:03:39.949Z,29.10
2023-03-01T18:08:45.355Z,29.20
2023-03-01T18:13:49.298Z,29.80
2023-03-01T18:18:55.065Z,30.40
2023-03-01T18:23:59.777Z,31.00
2023-03-01T18:29:04.701Z,31.50
2023-03-01T18:34:07.660Z,31.80
2023-03-01T18:39:11.814Z,32.50
2023-03-01T18:44:14.777Z,32.10
2023-03-01T18:49:17.616Z,31.70
2023-03-01T18:54:21.832Z,31.60
2023-03-01T18:59:24.750Z,31.60
2023-03-01T19:04:27.708Z,31.70
2023-03-01T19:09:31.980Z,31.80
2023-03-01T19:14:34.988Z,31.50
2023-03-01T19:19:37.861Z,31.70
2023-03-01T19:24:42.089Z,31.50
2023-03-01T19:29:44.960Z,31.70
2023-03-01T19:34:47.969Z,31.80
2023-03-01T19:39:52.146Z,32.00
2023-03-01T19:44:55.567Z,32.10
2023-03-01T19:49:58.424Z,32.40
2023-03-01T19:55:09.341Z,32.70
2023-03-01T20:00:13.420Z,32.30
2023-03-01T20:05:16.287Z,32.20
2023-03-01T20:10:20.638Z,32.00
2023-03-01T20:15:23.586Z,32.90
2023-03-01T20:20:26.677Z,32.60
2023-03-01T20:25:30.869Z,32.60
2023-03-01T20:30:33.773Z,32.40
2023-03-01T20:35:36.706Z,32.20
2023-03-01T20:40:40.935Z,32.50
2023-03-01T20:45:43.839Z,32.20
2023-03-01T20:50:46.713Z,32.10
2023-03-01T20:55:50.923Z,32.30
2023-03-01T21:00:53.807Z,32.10
2023-03-01T21:05:57.475Z,32.10
2023-03-01T21:11:02.354Z,31.80
2023-03-01T21:16:10.371Z,31.50
2023-03-01T21:21:15.632Z,31.90
2023-03-01T21:26:21.567Z,31.90
2023-03-01T21:31:27.554Z,32.00
2023-03-01T21:36:31.095Z,32.10
2023-03-01T21:41:37.833Z,32.00
2023-03-01T21:46:40.792Z,32.20
2023-03-01T21:51:43.702Z,32.10
2023-03-01T21:56:48.878Z,32.10
2023-03-01T22:01:52.963Z,32.40
2023-03-01T22:06:55.971Z,32.10
2023-03-01T22:12:02.522Z,32.10
2023-03-01T22:17:05.577Z,32.10
2023-03-01T22:22:08.436Z,32.30
2023-03-01T22:27:12.600Z,32.20
2023-03-01T22:32:15.768Z,31.80
2023-03-01T22:37:18.692Z,31.80
2023-03-01T22:42:23.068Z,31.80
2023-03-01T22:47:25.945Z,31.70
2023-03-01T22:52:28.785Z,31.70
2023-03-01T22:57:32.968Z,31.70
2023-03-01T23:02:36.468Z,31.70
2023-03-01T23:07:39.387Z,31.60
2023-03-01T23:12:43.581Z,31.60
2023-03-01T23:17:46.436Z,31.60
2023-03-01T23:22:49.236Z,31.50
2023-03-01T23:27:53.716Z,31.50
2023-03-01T23:32:57.368Z,31.50
2023-03-01T23:38:00.866Z,31.60
2023-03-01T23:43:05.073Z,31.60
2023-03-01T23:48:07.942Z,32.20
2023-03-01T23:53:12.558Z,31.70
2023-03-01T23:58:16.899Z,31.60
